sensor_id;sensor_type;location;lat;lon;timestamp;temperature;humidity
1165;DHT22;571;50.930;6.926;2023-09-19T02:47:36;18.40;97.10
1165;DHT22;571;50.930;6.926;2023-09-19T02:57:16;18.30;97.20
1165;DHT22;571;50.930;6.926;2023-09-19T03:00:42;18.30;97.20
1165;DHT22;571;50.930;6.926;2023-09-19T03:07:36;18.20;97.20
1165;DHT22;571;50.930;6.926;2023-09-19T03:11:58;18.10;97.40
1165;DHT22;571;50.930;6.926;2023-09-19T03:20:51;18.10;97.40
1165;DHT22;571;50.930;6.926;2023-09-19T03:30:01;18.00;97.90
1165;DHT22;571;50.930;6.926;2023-09-19T03:33:05;18.00;97.70
1165;DHT22;571;50.930;6.926;2023-09-19T03:43:08;17.90;97.90
1165;DHT22;571;50.930;6.926;2023-09-19T04:00:20;17.80;97.80
1165;DHT22;571;50.930;6.926;2023-09-19T04:10:19;17.80;98.10
1165;DHT22;571;50.930;6.926;2023-09-19T04:13:50;17.70;97.90
1165;DHT22;571;50.930;6.926;2023-09-19T04:31:08;17.70;97.50
1165;DHT22;571;50.930;6.926;2023-09-19T04:41:56;17.60;97.10
1165;DHT22;571;50.930;6.926;2023-09-19T04:47:32;17.50;97.00
1165;DHT22;571;50.930;6.926;2023-09-19T04:50:21;17.50;96.80
1165;DHT22;571;50.930;6.926;2023-09-19T04:53:26;17.50;96.60
1165;DHT22;571;50.930;6.926;2023-09-19T04:56:47;17.50;96.30
1165;DHT22;571;50.930;6.926;2023-09-19T04:59:42;17.50;95.90
1165;DHT22;571;50.930;6.926;2023-09-19T05:09:52;17.50;96.20
1165;DHT22;571;50.930;6.926;2023-09-19T05:12:51;17.50;96.10
1165;DHT22;571;50.930;6.926;2023-09-19T05:39:36;17.30;95.70
1165;DHT22;571;50.930;6.926;2023-09-19T05:42:58;17.30;95.80
1165;DHT22;571;50.930;6.926;2023-09-19T05:51:47;17.30;95.50
1165;DHT22;571;50.930;6.926;2023-09-19T06:08:45;17.30;95.00
1165;DHT22;571;50.930;6.926;2023-09-19T06:15:24;17.30;94.90
1165;DHT22;571;50.930;6.926;2023-09-19T06:18:31;17.30;94.90
1165;DHT22;571;50.930;6.926;2023-09-19T06:22:00;17.40;95.20
1165;DHT22;571;50.930;6.926;2023-09-19T06:28:06;17.50;95.10
1165;DHT22;571;50.930;6.926;2023-09-19T06:31:10;17.50;94.80
1165;DHT22;571;50.930;6.926;2023-09-19T06:34:38;17.50;95.00
1165;DHT22;571;50.930;6.926;2023-09-19T06:37:24;17.60;95.10
1165;DHT22;571;50.930;6.926;2023-09-19T06:53:35;17.70;95.00
1165;DHT22;571;50.930;6.926;2023-09-19T06:56:46;17.80;95.20
1165;DHT22;571;50.930;6.926;2023-09-19T06:59:51;17.80;94.90
1165;DHT22;571;50.930;6.926;2023-09-19T07:06:27;17.90;94.80
1165;DHT22;571;50.930;6.926;2023-09-19T07:12:36;18.00;94.70
1165;DHT22;571;50.930;6.926;2023-09-19T07:18:52;18.10;94.10
1165;DHT22;571;50.930;6.926;2023-09-19T07:22:07;18.20;95.00
1165;DHT22;571;50.930;6.926;2023-09-19T07:25:20;18.20;94.50
1165;DHT22;571;50.930;6.926;2023-09-19T07:28:50;18.20;94.50
1165;DHT22;571;50.930;6.926;2023-09-19T07:32:03;18.30;94.90
1165;DHT22;571;50.930;6.926;2023-09-19T07:35:00;18.30;94.60
1165;DHT22;571;50.930;6.926;2023-09-19T07:38:03;18.30;94.40
1165;DHT22;571;50.930;6.926;2023-09-19T07:41:50;18.40;94.80
1165;DHT22;571;50.930;6.926;2023-09-19T07:47:20;18.50;94.80
1165;DHT22;571;50.930;6.926;2023-09-19T07:49:59;18.50;94.40
1165;DHT22;571;50.930;6.926;2023-09-19T07:52:45;18.60;94.70
1165;DHT22;571;50.930;6.926;2023-09-19T07:55:26;18.70;94.10
1165;DHT22;571;50.930;6.926;2023-09-19T07:58:11;18.70;94.60
1165;DHT22;571;50.930;6.926;2023-09-19T08:00:44;18.80;94.60
1165;DHT22;571;50.930;6.926;2023-09-19T08:03:17;18.90;93.90
1165;DHT22;571;50.930;6.926;2023-09-19T08:06:07;18.90;93.90
1165;DHT22;571;50.930;6.926;2023-09-19T08:35:00;19.60;92.90
1165;DHT22;571;50.930;6.926;2023-09-19T08:37:46;19.60;92.10
1165;DHT22;571;50.930;6.926;2023-09-19T08:40:55;19.70;92.20
1165;DHT22;571;50.930;6.926;2023-09-19T08:43:46;19.80;91.90
1165;DHT22;571;50.930;6.926;2023-09-19T08:46:18;19.80;92.30
1165;DHT22;571;50.930;6.926;2023-09-19T08:49:15;19.90;92.10
1165;DHT22;571;50.930;6.926;2023-09-19T08:52:19;20.00;91.60
1165;DHT22;571;50.930;6.926;2023-09-19T08:54:52;20.00;90.80
1165;DHT22;571;50.930;6.926;2023-09-19T08:57:21;20.10;90.60
1165;DHT22;571;50.930;6.926;2023-09-19T09:00:09;20.10;89.30
1165;DHT22;571;50.930;6.926;2023-09-19T09:03:11;20.10;90.20
1165;DHT22;571;50.930;6.926;2023-09-19T09:06:06;20.10;90.30
1165;DHT22;571;50.930;6.926;2023-09-19T09:08:51;20.20;90.50
1165;DHT22;571;50.930;6.926;2023-09-19T10:12:48;21.20;81.80
1165;DHT22;571;50.930;6.926;2023-09-19T10:19:41;21.40;82.30
1165;DHT22;571;50.930;6.926;2023-09-19T10:22:43;21.50;81.40
1165;DHT22;571;50.930;6.926;2023-09-19T10:25:36;21.60;80.70
1165;DHT22;571;50.930;6.926;2023-09-19T10:28:42;21.60;81.40
1165;DHT22;571;50.930;6.926;2023-09-19T10:32:04;21.60;82.50
1165;DHT22;571;50.930;6.926;2023-09-19T10:34:56;21.70;81.60
1165;DHT22;571;50.930;6.926;2023-09-19T10:38:05;21.80;82.20
1165;DHT22;571;50.930;6.926;2023-09-19T10:40:40;21.90;81.70
1165;DHT22;571;50.930;6.926;2023-09-19T10:43:20;21.90;78.30
1165;DHT22;571;50.930;6.926;2023-09-19T10:46:01;22.00;77.90
1165;DHT22;571;50.930;6.926;2023-09-19T10:48:53;22.10;77.80
1165;DHT22;571;50.930;6.926;2023-09-19T10:51:54;22.10;79.40
1165;DHT22;571;50.930;6.926;2023-09-19T10:56:17;22.20;79.00
1165;DHT22;571;50.930;6.926;2023-09-19T10:58:39;22.20;78.70
1165;DHT22;571;50.930;6.926;2023-09-19T11:08:04;22.50;79.20
1165;DHT22;571;50.930;6.926;2023-09-19T11:20:24;22.70;75.50
1165;DHT22;571;50.930;6.926;2023-09-19T11:24:29;22.90;73.50
1165;DHT22;571;50.930;6.926;2023-09-19T11:27:59;23.10;72.30
1165;DHT22;571;50.930;6.926;2023-09-19T11:30:52;23.20;71.50
1165;DHT22;571;50.930;6.926;2023-09-19T11:59:28;24.70;62.30
1165;DHT22;571;50.930;6.926;2023-09-19T12:03:59;25.00;60.10
1165;DHT22;571;50.930;6.926;2023-09-19T12:10:31;25.70;58.40
1165;DHT22;571;50.930;6.926;2023-09-19T12:13:27;26.10;58.60
1165;DHT22;571;50.930;6.926;2023-09-19T12:16:36;26.40;54.20
1165;DHT22;571;50.930;6.926;2023-09-19T12:19:49;26.50;53.10
1165;DHT22;571;50.930;6.926;2023-09-19T12:25:43;26.60;52.20
1165;DHT22;571;50.930;6.926;2023-09-19T12:28:37;26.70;51.90
1165;DHT22;571;50.930;6.926;2023-09-19T12:31:23;26.70;52.40
1165;DHT22;571;50.930;6.926;2023-09-19T12:34:28;26.80;52.60
1165;DHT22;571;50.930;6.926;2023-09-19T12:37:19;26.90;53.20
1165;DHT22;571;50.930;6.926;2023-09-19T12:40:13;27.00;51.10
1165;DHT22;571;50.930;6.926;2023-09-19T12:43:00;27.10;49.90
1165;DHT22;571;50.930;6.926;2023-09-19T12:45:40;27.00;50.50
1165;DHT22;571;50.930;6.926;2023-09-19T12:48:26;27.10;51.00
1165;DHT22;571;50.930;6.926;2023-09-19T12:54:39;27.40;52.40
1165;DHT22;571;50.930;6.926;2023-09-19T13:00:40;27.80;48.80
1165;DHT22;571;50.930;6.926;2023-09-19T13:03:26;27.90;48.50
1165;DHT22;571;50.930;6.926;2023-09-19T13:06:34;27.80;48.20
1165;DHT22;571;50.930;6.926;2023-09-19T13:09:11;27.70;48.10
1165;DHT22;571;50.930;6.926;2023-09-19T13:11:58;27.80;48.10
1165;DHT22;571;50.930;6.926;2023-09-19T13:18:40;27.70;46.60
1165;DHT22;571;50.930;6.926;2023-09-19T13:21:37;27.40;47.00
1165;DHT22;571;50.930;6.926;2023-09-19T13:24:22;27.10;48.30
1165;DHT22;571;50.930;6.926;2023-09-19T13:27:15;26.90;49.10
1165;DHT22;571;50.930;6.926;2023-09-19T13:40:24;26.40;51.00
1165;DHT22;571;50.930;6.926;2023-09-19T13:43:03;26.40;50.60
1165;DHT22;571;50.930;6.926;2023-09-19T13:45:44;26.30;51.10
1165;DHT22;571;50.930;6.926;2023-09-19T13:48:45;26.20;51.30
1165;DHT22;571;50.930;6.926;2023-09-19T13:51:43;26.10;51.80
1165;DHT22;571;50.930;6.926;2023-09-19T13:54:21;26.10;51.50
1165;DHT22;571;50.930;6.926;2023-09-19T14:20:38;25.30;54.20
1165;DHT22;571;50.930;6.926;2023-09-19T14:27:10;25.00;55.10
1165;DHT22;571;50.930;6.926;2023-09-19T15:09:41;24.50;57.40
1165;DHT22;571;50.930;6.926;2023-09-19T15:12:07;24.40;57.10
1165;DHT22;571;50.930;6.926;2023-09-19T15:21:00;24.20;58.40
1165;DHT22;571;50.930;6.926;2023-09-19T15:27:15;24.00;57.80
1165;DHT22;571;50.930;6.926;2023-09-19T15:30:17;23.80;58.50
1165;DHT22;571;50.930;6.926;2023-09-19T15:33:33;23.80;58.50
1165;DHT22;571;50.930;6.926;2023-09-19T15:36:46;23.70;58.80
1165;DHT22;571;50.930;6.926;2023-09-19T15:40:08;23.70;58.30
1165;DHT22;571;50.930;6.926;2023-09-19T15:43:16;23.60;58.10
1165;DHT22;571;50.930;6.926;2023-09-19T15:46:09;23.50;58.70
1165;DHT22;571;50.930;6.926;2023-09-19T15:52:27;23.40;59.20
1165;DHT22;571;50.930;6.926;2023-09-19T15:55:31;23.40;59.50
1165;DHT22;571;50.930;6.926;2023-09-19T16:01:50;23.30;60.20
1165;DHT22;571;50.930;6.926;2023-09-19T16:15:17;23.30;61.10
1165;DHT22;571;50.930;6.926;2023-09-19T16:17:58;23.30;60.40
1165;DHT22;571;50.930;6.926;2023-09-19T16:20:32;23.30;60.40
1165;DHT22;571;50.930;6.926;2023-09-19T16:24:05;23.30;60.90
1165;DHT22;571;50.930;6.926;2023-09-19T16:40:21;23.00;62.30
1165;DHT22;571;50.930;6.926;2023-09-19T16:46:17;22.80;63.30
1165;DHT22;571;50.930;6.926;2023-09-19T17:10:18;22.50;66.40
1165;DHT22;571;50.930;6.926;2023-09-19T17:12:17;22.50;66.80
1165;DHT22;571;50.930;6.926;2023-09-19T17:14:50;22.40;66.90
1165;DHT22;571;50.930;6.926;2023-09-19T17:24:12;22.30;67.90
1165;DHT22;571;50.930;6.926;2023-09-19T17:26:47;22.20;68.20
1165;DHT22;571;50.930;6.926;2023-09-19T17:29:33;22.10;69.30
1165;DHT22;571;50.930;6.926;2023-09-19T17:32:21;22.00;69.80
1165;DHT22;571;50.930;6.926;2023-09-19T17:34:55;22.00;69.70
1165;DHT22;571;50.930;6.926;2023-09-19T17:40:19;21.90;69.80
1165;DHT22;571;50.930;6.926;2023-09-19T17:42:51;21.80;69.90
1165;DHT22;571;50.930;6.926;2023-09-19T17:45:23;21.80;70.00
1165;DHT22;571;50.930;6.926;2023-09-19T17:48:09;21.70;71.30
1165;DHT22;571;50.930;6.926;2023-09-19T17:50:42;21.70;71.50
1165;DHT22;571;50.930;6.926;2023-09-19T17:53:09;21.60;71.60
1165;DHT22;571;50.930;6.926;2023-09-19T17:56:11;21.60;72.10
1165;DHT22;571;50.930;6.926;2023-09-19T17:59:03;21.60;72.30
1165;DHT22;571;50.930;6.926;2023-09-19T18:01:45;21.60;72.30
1165;DHT22;571;50.930;6.926;2023-09-19T18:04:19;21.50;72.50
1165;DHT22;571;50.930;6.926;2023-09-19T18:06:51;21.50;73.40
1165;DHT22;571;50.930;6.926;2023-09-19T18:09:19;21.40;73.70
1165;DHT22;571;50.930;6.926;2023-09-19T18:12:02;21.40;73.60
1165;DHT22;571;50.930;6.926;2023-09-19T18:14:53;21.40;73.70
1165;DHT22;571;50.930;6.926;2023-09-19T18:17:27;21.40;73.60
1165;DHT22;571;50.930;6.926;2023-09-19T18:20:17;21.30;74.20
1165;DHT22;571;50.930;6.926;2023-09-19T18:23:04;21.30;74.20
1165;DHT22;571;50.930;6.926;2023-09-19T18:25:47;21.30;74.60
1165;DHT22;571;50.930;6.926;2023-09-19T18:34:37;21.30;76.20
1165;DHT22;571;50.930;6.926;2023-09-19T18:37:23;21.30;77.00
1165;DHT22;571;50.930;6.926;2023-09-19T18:40:10;21.40;77.40
1165;DHT22;571;50.930;6.926;2023-09-19T18:43:10;21.20;77.40
1165;DHT22;571;50.930;6.926;2023-09-19T18:45:57;21.20;77.90
1165;DHT22;571;50.930;6.926;2023-09-19T18:51:38;21.10;78.20
1165;DHT22;571;50.930;6.926;2023-09-19T18:54:28;21.20;79.00
1165;DHT22;571;50.930;6.926;2023-09-19T18:59:48;21.10;79.30
1165;DHT22;571;50.930;6.926;2023-09-19T19:03:39;21.10;79.10
1165;DHT22;571;50.930;6.926;2023-09-19T19:09:54;21.00;79.90
1165;DHT22;571;50.930;6.926;2023-09-19T19:12:30;21.00;80.10
1165;DHT22;571;50.930;6.926;2023-09-19T19:15:47;21.00;79.90
1165;DHT22;571;50.930;6.926;2023-09-19T19:18:22;21.00;79.90
1165;DHT22;571;50.930;6.926;2023-09-19T19:21:00;21.00;79.90
1165;DHT22;571;50.930;6.926;2023-09-19T19:23:38;20.90;81.60
1165;DHT22;571;50.930;6.926;2023-09-19T19:26:24;21.00;80.50
1165;DHT22;571;50.930;6.926;2023-09-19T19:29:40;21.00;80.50
1165;DHT22;571;50.930;6.926;2023-09-19T19:32:33;21.00;80.80
1165;DHT22;571;50.930;6.926;2023-09-19T19:35:16;21.00;81.20
1165;DHT22;571;50.930;6.926;2023-09-19T19:37:57;21.00;80.80
1165;DHT22;571;50.930;6.926;2023-09-19T19:40:41;21.00;80.90
1165;DHT22;571;50.930;6.926;2023-09-19T19:46:50;20.90;81.00
1165;DHT22;571;50.930;6.926;2023-09-19T19:49:32;20.90;81.50
1165;DHT22;571;50.930;6.926;2023-09-19T19:52:07;20.90;81.50
1165;DHT22;571;50.930;6.926;2023-09-19T19:54:44;20.90;81.60
1165;DHT22;571;50.930;6.926;2023-09-19T20:00:32;20.80;82.40
1165;DHT22;571;50.930;6.926;2023-09-19T20:03:22;20.80;82.40
1165;DHT22;571;50.930;6.926;2023-09-19T20:06:13;20.80;82.80
1165;DHT22;571;50.930;6.926;2023-09-19T20:09:25;20.70;83.00
1165;DHT22;571;50.930;6.926;2023-09-19T20:14:36;20.70;83.50
1165;DHT22;571;50.930;6.926;2023-09-19T20:15:20;20.80;84.00
1165;DHT22;571;50.930;6.926;2023-09-19T20:18:10;20.80;84.70
1165;DHT22;571;50.930;6.926;2023-09-19T20:20:52;20.70;84.10
1165;DHT22;571;50.930;6.926;2023-09-19T20:23:53;20.80;84.20
1165;DHT22;571;50.930;6.926;2023-09-19T20:29:49;20.70;84.60
1165;DHT22;571;50.930;6.926;2023-09-19T20:32:26;20.80;85.60
1165;DHT22;571;50.930;6.926;2023-09-19T20:35:17;20.70;85.60
1165;DHT22;571;50.930;6.926;2023-09-19T20:38:00;20.70;85.80
1165;DHT22;571;50.930;6.926;2023-09-19T20:40:55;20.70;86.20
1165;DHT22;571;50.930;6.926;2023-09-19T20:43:52;20.70;87.40
1165;DHT22;571;50.930;6.926;2023-09-19T20:48:55;20.70;86.60
1165;DHT22;571;50.930;6.926;2023-09-19T20:50:42;20.70;87.50
1165;DHT22;571;50.930;6.926;2023-09-19T20:53:12;20.70;87.60
1165;DHT22;571;50.930;6.926;2023-09-19T20:55:47;20.60;87.60
1165;DHT22;571;50.930;6.926;2023-09-19T20:58:18;20.60;87.90
1165;DHT22;571;50.930;6.926;2023-09-19T21:01:04;20.60;88.20
1165;DHT22;571;50.930;6.926;2023-09-19T21:03:47;20.60;88.20
1165;DHT22;571;50.930;6.926;2023-09-19T21:06:27;20.60;88.30
1165;DHT22;571;50.930;6.926;2023-09-19T21:08:59;20.60;88.40
1165;DHT22;571;50.930;6.926;2023-09-19T21:11:32;20.60;88.60
1165;DHT22;571;50.930;6.926;2023-09-19T21:14:10;20.50;88.80
1165;DHT22;571;50.930;6.926;2023-09-19T21:16:39;20.60;89.10
1165;DHT22;571;50.930;6.926;2023-09-19T21:19:16;20.50;88.90
1165;DHT22;571;50.930;6.926;2023-09-19T21:21:55;20.50;89.20
1165;DHT22;571;50.930;6.926;2023-09-19T21:24:24;20.50;89.50
1165;DHT22;571;50.930;6.926;2023-09-19T21:27:03;20.60;89.60
1165;DHT22;571;50.930;6.926;2023-09-19T21:29:43;20.60;89.10
1165;DHT22;571;50.930;6.926;2023-09-19T21:32:18;20.50;89.30
1165;DHT22;571;50.930;6.926;2023-09-19T21:38:15;20.50;89.90
1165;DHT22;571;50.930;6.926;2023-09-19T21:41:17;20.50;90.00
1165;DHT22;571;50.930;6.926;2023-09-19T21:46:38;20.50;89.80
1165;DHT22;571;50.930;6.926;2023-09-19T21:49:21;20.50;90.00
1165;DHT22;571;50.930;6.926;2023-09-19T21:51:57;20.50;90.20
1165;DHT22;571;50.930;6.926;2023-09-19T21:54:30;20.50;90.20
1165;DHT22;571;50.930;6.926;2023-09-19T21:57:00;20.40;90.20
1165;DHT22;571;50.930;6.926;2023-09-19T21:59:44;20.40;90.20
